Time,TemperatureF,DewpointF,PressureIn,WindDirection,WindDirectionDegrees,WindSpeedMPH,WindSpeedGustMPH,Humidity,HourlyPrecipIn,Conditions,Clouds,dailyrainin,SoftwareType,DateUTC
2013-07-07 00:01:00,73.8,71.3,30.23,South,170,0.0,1.0,92,0.00,,---,0.00,VWS V14.01,2013-07-07 04:01:00,
2013-07-07 00:02:00,73.7,71.2,30.23,South,171,1.0,1.0,92,0.00,,---,0.00,VWS V14.01,2013-07-07 04:02:00,
2013-07-07 00:03:00,73.7,71.2,30.23,South,190,2.0,3.0,92,0.00,,---,0.00,VWS V14.01,2013-07-07 04:03:00,
2013-07-07 00:05:00,73.7,71.2,30.22,SSW,192,3.0,3.0,92,0.00,,---,0.00,VWS V14.01,2013-07-07 04:05:00,
2013-07-07 00:10:00,73.7,71.6,30.22,South,186,0.0,4.0,93,0.00,,---,0.00,VWS V14.01,2013-07-07 04:10:00,
2013-07-07 00:15:00,73.7,71.6,30.23,South,178,1.0,2.0,93,0.00,,---,0.00,VWS V14.01,2013-07-07 04:15:00,
2013-07-07 00:21:00,73.6,71.5,30.23,South,178,1.0,3.0,93,0.00,,---,0.00,VWS V14.01,2013-07-07 04:21:00,
2013-07-07 00:26:00,73.7,71.6,30.23,South,182,0.0,3.0,93,0.00,,---,0.00,VWS V14.01,2013-07-07 04:26:00,
2013-07-07 00:31:00,73.7,71.6,30.22,South,182,0.0,1.0,93,0.00,,---,0.00,VWS V14.01,2013-07-07 04:31:00,
2013-07-07 00:36:00,73.6,71.5,30.22,SSW,194,0.0,4.0,93,0.00,,---,0.00,VWS V14.01,2013-07-07 04:36:00,
2013-07-07 00:41:00,73.6,71.5,30.22,SSW,194,0.0,4.0,93,0.00,,---,0.00,VWS V14.01,2013-07-07 04:41:00,
2013-07-07 00:46:00,73.6,71.8,30.22,SSW,194,0.0,0.0,94,0.00,,---,0.00,VWS V14.01,2013-07-07 04:46:00,
2013-07-07 00:51:00,73.5,71.4,30.22,SSW,198,0.0,2.0,93,0.00,,---,0.00,VWS V14.01,2013-07-07 04:51:00,
2013-07-07 00:56:00,73.4,71.6,30.22,South,174,0.0,2.0,94,0.00,,---,0.00,VWS V14.01,2013-07-07 04:56:00,
2013-07-07 01:01:00,73.3,71.5,30.22,South,174,0.0,0.0,94,0.00,,---,0.00,VWS V14.01,2013-07-07 05:01:00,
2013-07-07 01:06:00,73.2,71.4,30.22,South,175,1.0,3.0,94,0.00,,---,0.00,VWS V14.01,2013-07-07 05:06:00,
2013-07-07 01:11:00,73.1,71.3,30.22,South,175,1.0,3.0,94,0.00,,---,0.00,VWS V14.01,2013-07-07 05:11:00,
2013-07-07 01:16:00,73.1,71.3,30.21,South,180,2.0,2.0,94,0.00,,---,0.00,VWS V14.01,2013-07-07 05:16:00,
2013-07-07 01:21:00,73.0,71.2,30.21,South,186,1.0,2.0,94,0.00,,---,0.00,VWS V14.01,2013-07-07 05:21:00,
2013-07-07 01:26:00,73.0,71.2,30.21,South,186,0.0,3.0,94,0.00,,---,0.00,VWS V14.01,2013-07-07 05:26:00,
2013-07-07 01:31:00,73.0,71.5,30.21,South,186,0.0,2.0,95,0.00,,---,0.00,VWS V14.01,2013-07-07 05:31:00,
2013-07-07 01:36:00,72.9,71.4,30.21,South,186,1.0,2.0,95,0.00,,---,0.00,VWS V14.01,2013-07-07 05:36:00,
2013-07-07 01:41:00,72.9,71.4,30.21,South,186,0.0,2.0,95,0.00,,---,0.00,VWS V14.01,2013-07-07 05:41:00,
2013-07-07 01:47:00,72.8,71.3,30.21,South,186,0.0,1.0,95,0.00,,---,0.00,VWS V14.01,2013-07-07 05:47:00,
2013-07-07 01:52:00,72.7,71.2,30.21,South,186,0.0,1.0,95,0.00,,---,0.00,VWS V14.01,2013-07-07 05:52:00,
2013-07-07 01:57:00,72.6,71.1,30.21,South,186,0.0,1.0,95,0.00,,---,0.00,VWS V14.01,2013-07-07 05:57:00,
2013-07-07 02:02:00,72.4,70.9,30.21,South,186,0.0,0.0,95,0.00,,---,0.00,VWS V14.01,2013-07-07 06:02:00,
2013-07-07 02:07:00,72.4,71.2,30.21,South,186,0.0,0.0,96,0.00,,---,0.00,VWS V14.01,2013-07-07 06:07:00,
2013-07-07 02:12:00,72.3,70.8,30.20,South,186,0.0,0.0,95,0.00,,---,0.00,VWS V14.01,2013-07-07 06:12:00,
2013-07-07 02:17:00,72.1,70.6,30.20,South,186,0.0,0.0,95,0.00,,---,0.00,VWS V14.01,2013-07-07 06:17:00,
2013-07-07 02:22:00,71.9,70.4,30.20,South,186,0.0,0.0,95,0.00,,---,0.00,VWS V14.01,2013-07-07 06:22:00,
2013-07-07 02:27:00,71.7,70.5,30.20,South,186,0.0,0.0,96,0.00,,---,0.00,VWS V14.01,2013-07-07 06:27:00,
2013-07-07 02:32:00,71.4,70.2,30.20,South,186,0.0,0.0,96,0.00,,---,0.00,VWS V14.01,2013-07-07 06:32:00,
2013-07-07 02:37:00,71.2,70.0,30.20,South,186,0.0,0.0,96,0.00,,---,0.00,VWS V14.01,2013-07-07 06:37:00,
2013-07-07 02:42:00,71.1,69.9,30.20,South,186,0.0,0.0,96,0.00,,---,0.00,VWS V14.01,2013-07-07 06:42:00,
2013-07-07 02:47:00,71.0,69.8,30.20,South,186,0.0,0.0,96,0.00,,---,0.00,VWS V14.01,2013-07-07 06:47:00,
2013-07-07 02:53:00,70.9,69.7,30.19,South,186,0.0,0.0,96,0.00,,---,0.00,VWS V14.01,2013-07-07 06:53:00,
2013-07-07 02:58:00,70.7,69.5,30.20,South,186,0.0,0.0,96,0.00,,---,0.00,VWS V14.01,2013-07-07 06:58:00,
2013-07-07 03:03:00,70.5,69.3,30.20,South,186,0.0,0.0,96,0.00,,---,0.00,VWS V14.01,2013-07-07 07:03:00,
2013-07-07 03:08:00,70.3,69.1,30.19,South,186,0.0,0.0,96,0.00,,---,0.00,VWS V14.01,2013-07-07 07:08:00,
2013-07-07 03:13:00,70.3,69.4,30.19,South,186,0.0,0.0,97,0.00,,---,0.00,VWS V14.01,2013-07-07 07:13:00,
2013-07-07 03:18:00,70.5,69.6,30.19,South,186,0.0,0.0,97,0.00,,---,0.00,VWS V14.01,2013-07-07 07:18:00,
2013-07-07 03:23:00,70.6,69.7,30.19,South,186,0.0,0.0,97,0.00,,---,0.00,VWS V14.01,2013-07-07 07:23:00,
2013-07-07 03:28:00,70.5,69.6,30.19,South,186,0.0,0.0,97,0.00,,---,0.00,VWS V14.01,2013-07-07 07:28:00,
2013-07-07 03:33:00,70.4,69.5,30.19,South,186,0.0,0.0,97,0.00,,---,0.00,VWS V14.01,2013-07-07 07:33:00,
2013-07-07 03:38:00,70.4,69.5,30.19,South,186,0.0,0.0,97,0.00,,---,0.00,VWS V14.01,2013-07-07 07:38:00,
2013-07-07 03:40:00,70.4,69.5,30.19,South,186,0.0,0.0,97,0.00,,---,0.00,VWS V14.01,2013-07-07 07:40:00,
2013-07-07 03:45:00,70.4,69.5,30.19,South,186,0.0,0.0,97,0.00,,---,0.00,VWS V14.01,2013-07-07 07:45:00,
2013-07-07 03:50:00,70.5,69.6,30.19,South,186,0.0,0.0,97,0.00,,---,0.00,VWS V14.01,2013-07-07 07:50:00,
2013-07-07 03:55:00,70.7,69.8,30.19,South,186,0.0,0.0,97,0.00,,---,0.00,VWS V14.01,2013-07-07 07:55:00,
2013-07-07 04:00:00,71.0,70.1,30.19,South,186,0.0,0.0,97,0.00,,---,0.00,VWS V14.01,2013-07-07 08:00:00,
2013-07-07 04:05:00,71.0,70.1,30.19,South,186,0.0,0.0,97,0.00,,---,0.00,VWS V14.01,2013-07-07 08:05:00,
2013-07-07 04:10:00,71.0,70.1,30.19,South,186,0.0,0.0,97,0.00,,---,0.00,VWS V14.01,2013-07-07 08:10:00,
2013-07-07 04:15:00,71.1,70.2,30.19,South,186,0.0,0.0,97,0.00,,---,0.00,VWS V14.01,2013-07-07 08:15:00,
2013-07-07 04:20:00,71.2,70.3,30.19,South,186,0.0,1.0,97,0.00,,---,0.00,VWS V14.01,2013-07-07 08:20:00,
2013-07-07 04:25:00,71.2,70.3,30.19,SSE,168,0.0,1.0,97,0.00,,---,0.00,VWS V14.01,2013-07-07 08:25:00,
2013-07-07 04:30:00,71.3,70.4,30.19,South,189,0.0,0.0,97,0.00,,---,0.00,VWS V14.01,2013-07-07 08:30:00,
2013-07-07 04:35:00,71.3,70.4,30.19,SSW,197,0.0,0.0,97,0.00,,---,0.00,VWS V14.01,2013-07-07 08:35:00,
2013-07-07 04:40:00,71.3,70.4,30.19,SSW,198,0.0,1.0,97,0.00,,---,0.00,VWS V14.01,2013-07-07 08:40:00,
2013-07-07 04:45:00,71.4,70.5,30.19,SSW,204,0.0,0.0,97,0.00,,---,0.00,VWS V14.01,2013-07-07 08:45:00,
2013-07-07 04:51:00,71.4,70.5,30.19,SSW,196,0.0,1.0,97,0.00,,---,0.00,VWS V14.01,2013-07-07 08:51:00,
2013-07-07 04:56:00,71.5,70.6,30.19,SSW,196,0.0,1.0,97,0.00,,---,0.00,VWS V14.01,2013-07-07 08:56:00,
2013-07-07 05:01:00,71.5,70.6,30.19,SSW,197,0.0,0.0,97,0.00,,---,0.00,VWS V14.01,2013-07-07 09:01:00,
2013-07-07 05:06:00,71.6,70.7,30.19,SSW,192,0.0,3.0,97,0.00,,---,0.00,VWS V14.01,2013-07-07 09:06:00,
2013-07-07 05:11:00,71.6,70.7,30.20,SSW,192,0.0,3.0,97,0.00,,---,0.00,VWS V14.01,2013-07-07 09:11:00,
2013-07-07 05:16:00,71.7,70.8,30.20,SSW,204,0.0,2.0,97,0.00,,---,0.00,VWS V14.01,2013-07-07 09:16:00,
2013-07-07 05:21:00,71.8,71.2,30.20,SSW,200,0.0,2.0,98,0.00,,---,0.00,VWS V14.01,2013-07-07 09:21:00,
2013-07-07 05:26:00,71.8,71.2,30.20,South,169,3.0,4.0,98,0.00,,---,0.00,VWS V14.01,2013-07-07 09:26:00,
2013-07-07 05:31:00,71.9,71.3,30.20,South,170,0.0,2.0,98,0.00,,---,0.00,VWS V14.01,2013-07-07 09:31:00,
2013-07-07 05:36:00,72.0,71.4,30.20,SW,222,1.0,3.0,98,0.00,,---,0.00,VWS V14.01,2013-07-07 09:36:00,
2013-07-07 05:41:00,72.0,71.4,30.20,WSW,244,0.0,5.0,98,0.00,,---,0.00,VWS V14.01,2013-07-07 09:41:00,
2013-07-07 05:46:00,72.0,71.4,30.20,WSW,240,2.0,2.0,98,0.00,,---,0.00,VWS V14.01,2013-07-07 09:46:00,
2013-07-07 05:51:00,72.0,71.4,30.20,SW,215,2.0,3.0,98,0.00,,---,0.00,VWS V14.01,2013-07-07 09:51:00,
2013-07-07 05:56:00,72.0,71.4,30.20,South,187,0.0,3.0,98,0.00,,---,0.00,VWS V14.01,2013-07-07 09:56:00,
2013-07-07 06:02:00,71.9,71.3,30.20,South,186,0.0,1.0,98,0.00,,---,0.00,VWS V14.01,2013-07-07 10:02:00,
2013-07-07 06:07:00,72.0,71.4,30.20,SW,232,1.0,2.0,98,0.00,,---,0.00,VWS V14.01,2013-07-07 10:07:00,
2013-07-07 06:12:00,71.9,71.3,30.20,SSW,194,0.0,3.0,98,0.00,,---,0.00,VWS V14.01,2013-07-07 10:12:00,
2013-07-07 06:17:00,71.8,71.2,30.20,SSW,194,0.0,0.0,98,0.00,,---,0.00,VWS V14.01,2013-07-07 10:17:00,
2013-07-07 06:22:00,71.9,71.3,30.20,SSW,195,1.0,2.0,98,0.00,,---,0.00,VWS V14.01,2013-07-07 10:22:00,
2013-07-07 06:27:00,71.9,71.3,30.20,SSW,194,0.0,3.0,98,0.00,,---,0.00,VWS V14.01,2013-07-07 10:27:00,
2013-07-07 06:32:00,72.0,71.4,30.20,SSW,194,1.0,1.0,98,0.00,,---,0.00,VWS V14.01,2013-07-07 10:32:00,
2013-07-07 06:37:00,72.0,71.4,30.20,SSW,194,0.0,2.0,98,0.00,,---,0.00,VWS V14.01,2013-07-07 10:37:00,
2013-07-07 06:42:00,72.1,71.2,30.20,SSW,194,0.0,2.0,97,0.00,,---,0.00,VWS V14.01,2013-07-07 10:42:00,
2013-07-07 06:47:00,72.1,71.2,30.20,SSW,200,0.0,2.0,97,0.00,,---,0.00,VWS V14.01,2013-07-07 10:47:00,
2013-07-07 06:52:00,72.1,71.2,30.20,SSW,200,0.0,2.0,97,0.00,,---,0.00,VWS V14.01,2013-07-07 10:52:00,
2013-07-07 06:57:00,72.2,71.3,30.20,South,188,2.0,2.0,97,0.00,,---,0.00,VWS V14.01,2013-07-07 10:57:00,
2013-07-07 07:02:00,72.2,71.3,30.20,South,184,0.0,1.0,97,0.00,,---,0.00,VWS V14.01,2013-07-07 11:02:00,
2013-07-07 07:07:00,72.3,71.7,30.20,South,184,0.0,2.0,98,0.00,,---,0.00,VWS V14.01,2013-07-07 11:07:00,
2013-07-07 07:13:00,72.4,71.8,30.20,SSW,195,0.0,5.0,98,0.00,,---,0.00,VWS V14.01,2013-07-07 11:13:00,
2013-07-07 07:18:00,72.5,71.9,30.20,South,184,2.0,3.0,98,0.00,,---,0.00,VWS V14.01,2013-07-07 11:18:00,
2013-07-07 07:23:00,72.7,71.8,30.20,SSE,153,0.0,3.0,97,0.00,,---,0.00,VWS V14.01,2013-07-07 11:23:00,
2013-07-07 07:28:00,72.8,71.9,30.21,South,188,1.0,3.0,97,0.00,,---,0.00,VWS V14.01,2013-07-07 11:28:00,
2013-07-07 07:33:00,72.8,71.9,30.20,South,184,0.0,5.0,97,0.00,,---,0.00,VWS V14.01,2013-07-07 11:33:00,
2013-07-07 07:38:00,73.0,72.1,30.20,South,189,2.0,5.0,97,0.00,,---,0.00,VWS V14.01,2013-07-07 11:38:00,
2013-07-07 07:43:00,73.0,72.1,30.21,South,171,3.0,6.0,97,0.00,,---,0.00,VWS V14.01,2013-07-07 11:43:00,
2013-07-07 07:48:00,73.1,72.2,30.21,South,180,1.0,4.0,97,0.00,,---,0.00,VWS V14.01,2013-07-07 11:48:00,
2013-07-07 07:53:00,73.2,72.3,30.21,South,189,0.0,4.0,97,0.00,,---,0.00,VWS V14.01,2013-07-07 11:53:00,
2013-07-07 07:58:00,73.2,72.3,30.21,SSW,199,2.0,5.0,97,0.00,,---,0.00,VWS V14.01,2013-07-07 11:58:00,
2013-07-07 08:03:00,73.4,72.2,30.21,SW,219,2.0,3.0,96,0.00,,---,0.00,VWS V14.01,2013-07-07 12:03:00,
2013-07-07 08:08:00,73.9,72.7,30.21,SSE,150,1.0,5.0,96,0.00,,---,0.00,VWS V14.01,2013-07-07 12:08:00,
2013-07-07 08:13:00,74.5,73.3,30.21,South,182,2.0,5.0,96,0.00,,---,0.00,VWS V14.01,2013-07-07 12:13:00,
2013-07-07 08:18:00,74.7,72.9,30.21,SSE,167,1.0,4.0,94,0.00,,---,0.00,VWS V14.01,2013-07-07 12:18:00,
2013-07-07 08:23:00,74.7,72.9,30.21,SSW,210,0.0,5.0,94,0.00,,---,0.00,VWS V14.01,2013-07-07 12:23:00,
2013-07-07 08:29:00,74.7,72.6,30.21,SSW,200,4.0,6.0,93,0.00,,---,0.00,VWS V14.01,2013-07-07 12:29:00,
2013-07-07 08:34:00,74.7,72.6,30.21,SSE,161,0.0,5.0,93,0.00,,---,0.00,VWS V14.01,2013-07-07 12:34:00,
2013-07-07 08:39:00,74.8,72.6,30.22,South,180,1.0,5.0,93,0.00,,---,0.00,VWS V14.01,2013-07-07 12:39:00,
2013-07-07 08:44:00,74.9,72.7,30.22,SSE,165,0.0,5.0,93,0.00,,---,0.00,VWS V14.01,2013-07-07 12:44:00,
2013-07-07 08:49:00,74.9,72.7,30.22,SSE,168,0.0,2.0,93,0.00,,---,0.00,VWS V14.01,2013-07-07 12:49:00,
2013-07-07 08:54:00,75.1,73.3,30.22,SSE,165,3.0,5.0,94,0.00,,---,0.00,VWS V14.01,2013-07-07 12:54:00,
2013-07-07 08:59:00,75.2,73.0,30.22,WSW,238,2.0,5.0,93,0.00,,---,0.00,VWS V14.01,2013-07-07 12:59:00,
2013-07-07 09:05:00,75.3,73.1,30.22,SSW,205,2.0,4.0,93,0.00,,---,0.00,VWS V14.01,2013-07-07 13:05:00,
2013-07-07 09:10:00,75.5,73.3,30.22,SSE,165,5.0,5.0,93,0.00,,---,0.00,VWS V14.01,2013-07-07 13:10:00,
2013-07-07 09:15:00,75.8,73.3,30.22,South,190,1.0,5.0,92,0.00,,---,0.00,VWS V14.01,2013-07-07 13:15:00,
2013-07-07 09:20:00,76.2,73.4,30.22,SSW,213,2.0,5.0,91,0.00,,---,0.00,VWS V14.01,2013-07-07 13:20:00,
2013-07-07 09:25:00,76.4,73.2,30.22,SW,225,4.0,6.0,90,0.00,,---,0.00,VWS V14.01,2013-07-07 13:25:00,
2013-07-07 09:30:00,76.4,72.9,30.22,South,180,2.0,7.0,89,0.00,,---,0.00,VWS V14.01,2013-07-07 13:30:00,
2013-07-07 09:35:00,76.6,73.4,30.22,South,178,0.0,6.0,90,0.00,,---,0.00,VWS V14.01,2013-07-07 13:35:00,
2013-07-07 09:40:00,77.2,74.0,30.22,SW,217,5.0,6.0,90,0.00,,---,0.00,VWS V14.01,2013-07-07 13:40:00,
2013-07-07 09:45:00,77.7,74.2,30.22,West,262,0.0,1.0,89,0.00,,---,0.00,VWS V14.01,2013-07-07 13:45:00,
2013-07-07 09:50:00,78.0,74.2,30.22,SSW,202,3.0,4.0,88,0.00,,---,0.00,VWS V14.01,2013-07-07 13:50:00,
2013-07-07 09:55:00,78.2,74.0,30.22,SSW,202,6.0,7.0,87,0.00,,---,0.00,VWS V14.01,2013-07-07 13:55:00,
2013-07-07 10:00:00,78.1,73.9,30.22,SSE,166,3.0,4.0,87,0.00,,---,0.00,VWS V14.01,2013-07-07 14:00:00,
2013-07-07 10:05:00,77.9,73.4,30.22,South,170,4.0,8.0,86,0.00,,---,0.00,VWS V14.01,2013-07-07 14:05:00,
2013-07-07 10:10:00,77.6,73.4,30.22,South,169,3.0,8.0,87,0.00,,---,0.00,VWS V14.01,2013-07-07 14:10:00,
2013-07-07 10:16:00,77.4,73.2,30.22,South,181,3.0,5.0,87,0.00,,---,0.00,VWS V14.01,2013-07-07 14:16:00,
2013-07-07 10:21:00,77.5,73.7,30.22,WSW,241,3.0,7.0,88,0.00,,---,0.00,VWS V14.01,2013-07-07 14:21:00,
2013-07-07 10:26:00,77.9,73.4,30.22,SE,143,3.0,7.0,86,0.00,,---,0.00,VWS V14.01,2013-07-07 14:26:00,
2013-07-07 10:31:00,78.2,74.0,30.22,South,179,3.0,6.0,87,0.00,,---,0.00,VWS V14.01,2013-07-07 14:31:00,
2013-07-07 10:36:00,78.2,73.7,30.22,South,180,3.0,7.0,86,0.00,,---,0.00,VWS V14.01,2013-07-07 14:36:00,
2013-07-07 10:41:00,78.2,73.3,30.22,SW,231,3.0,7.0,85,0.00,,---,0.00,VWS V14.01,2013-07-07 14:41:00,
2013-07-07 10:46:00,78.3,73.4,30.22,SSW,210,6.0,7.0,85,0.00,,---,0.00,VWS V14.01,2013-07-07 14:46:00,
2013-07-07 10:52:00,78.6,74.1,30.22,South,172,0.0,7.0,86,0.00,,---,0.00,VWS V14.01,2013-07-07 14:52:00,
2013-07-07 10:57:00,79.0,74.1,30.22,South,175,8.0,8.0,85,0.00,,---,0.00,VWS V14.01,2013-07-07 14:57:00,
2013-07-07 11:02:00,79.0,74.1,30.22,SW,232,3.0,6.0,85,0.00,,---,0.00,VWS V14.01,2013-07-07 15:02:00,
2013-07-07 11:07:00,80.0,74.7,30.21,South,171,5.0,6.0,84,0.00,,---,0.00,VWS V14.01,2013-07-07 15:07:00,
2013-07-07 11:12:00,80.3,74.7,30.22,SSE,153,1.0,9.0,83,0.00,,---,0.00,VWS V14.01,2013-07-07 15:12:00,
2013-07-07 11:17:00,80.1,74.1,30.21,SSW,201,3.0,7.0,82,0.00,,---,0.00,VWS V14.01,2013-07-07 15:17:00,
2013-07-07 11:22:00,80.3,74.3,30.22,South,171,1.0,7.0,82,0.00,,---,0.00,VWS V14.01,2013-07-07 15:22:00,
2013-07-07 11:27:00,80.5,74.1,30.22,SSW,196,3.0,11.0,81,0.00,,---,0.00,VWS V14.01,2013-07-07 15:27:00,
2013-07-07 11:32:00,80.8,74.4,30.22,South,189,4.0,10.0,81,0.00,,---,0.00,VWS V14.01,2013-07-07 15:32:00,
2013-07-07 11:37:00,81.5,75.1,30.22,WSW,242,1.0,10.0,81,0.00,,---,0.00,VWS V14.01,2013-07-07 15:37:00,
2013-07-07 11:42:00,81.1,74.0,30.21,South,171,1.0,10.0,79,0.00,,---,0.00,VWS V14.01,2013-07-07 15:42:00,
2013-07-07 11:47:00,81.0,74.2,30.21,SW,222,1.0,5.0,80,0.00,,---,0.00,VWS V14.01,2013-07-07 15:47:00,
2013-07-07 11:53:00,80.7,74.0,30.21,South,190,3.0,7.0,80,0.00,,---,0.00,VWS V14.01,2013-07-07 15:53:00,
2013-07-07 11:58:00,80.8,74.1,30.21,SSW,200,2.0,7.0,80,0.00,,---,0.00,VWS V14.01,2013-07-07 15:58:00,
2013-07-07 12:03:00,80.8,74.1,30.21,SSE,148,3.0,6.0,80,0.00,,---,0.00,VWS V14.01,2013-07-07 16:03:00,
2013-07-07 12:08:00,81.1,73.6,30.21,SSW,195,0.0,7.0,78,0.00,,---,0.00,VWS V14.01,2013-07-07 16:08:00,
2013-07-07 12:13:00,81.2,74.1,30.21,South,189,3.0,10.0,79,0.00,,---,0.00,VWS V14.01,2013-07-07 16:13:00,
2013-07-07 12:18:00,81.0,73.1,30.21,South,182,1.0,8.0,77,0.00,,---,0.00,VWS V14.01,2013-07-07 16:18:00,
2013-07-07 12:23:00,81.0,73.5,30.21,SSE,157,2.0,8.0,78,0.00,,---,0.00,VWS V14.01,2013-07-07 16:23:00,
2013-07-07 12:28:00,80.5,72.6,30.21,SSW,195,5.0,8.0,77,0.00,,---,0.00,VWS V14.01,2013-07-07 16:28:00,
2013-07-07 12:33:00,80.9,73.8,30.21,WSW,255,6.0,8.0,79,0.00,,---,0.00,VWS V14.01,2013-07-07 16:33:00,
2013-07-07 12:38:00,81.6,73.7,30.21,South,187,2.0,8.0,77,0.00,,---,0.00,VWS V14.01,2013-07-07 16:38:00,
2013-07-07 12:43:00,82.0,73.7,30.21,SW,219,7.0,8.0,76,0.00,,---,0.00,VWS V14.01,2013-07-07 16:43:00,
2013-07-07 12:48:00,81.6,73.7,30.20,South,170,1.0,7.0,77,0.00,,---,0.00,VWS V14.01,2013-07-07 16:48:00,
2013-07-07 12:53:00,82.1,74.2,30.20,SSW,196,1.0,7.0,77,0.00,,---,0.00,VWS V14.01,2013-07-07 16:53:00,
2013-07-07 12:58:00,83.3,74.2,30.20,South,174,0.0,7.0,74,0.00,,---,0.00,VWS V14.01,2013-07-07 16:58:00,
2013-07-07 13:04:00,83.9,75.9,30.20,SW,234,5.0,5.0,77,0.00,,---,0.00,VWS V14.01,2013-07-07 17:04:00,
2013-07-07 13:09:00,84.3,75.1,30.19,SSW,212,3.0,6.0,74,0.00,,---,0.00,VWS V14.01,2013-07-07 17:09:00,
2013-07-07 13:14:00,84.4,75.6,30.19,South,169,4.0,7.0,75,0.00,,---,0.00,VWS V14.01,2013-07-07 17:14:00,
2013-07-07 13:19:00,84.8,75.6,30.19,West,274,3.0,5.0,74,0.00,,---,0.00,VWS V14.01,2013-07-07 17:19:00,
2013-07-07 13:24:00,84.4,74.8,30.19,West,262,3.0,7.0,73,0.00,,---,0.00,VWS V14.01,2013-07-07 17:24:00,
2013-07-07 13:29:00,84.3,75.5,30.19,South,171,2.0,7.0,75,0.00,,---,0.00,VWS V14.01,2013-07-07 17:29:00,
2013-07-07 13:34:00,84.5,74.9,30.19,South,182,4.0,11.0,73,0.00,,---,0.00,VWS V14.01,2013-07-07 17:34:00,
2013-07-07 13:39:00,84.5,74.5,30.19,South,170,6.0,11.0,72,0.00,,---,0.00,VWS V14.01,2013-07-07 17:39:00,
2013-07-07 13:44:00,83.9,73.9,30.19,South,183,2.0,11.0,72,0.00,,---,0.00,VWS V14.01,2013-07-07 17:44:00,
2013-07-07 13:49:00,83.5,75.1,30.19,SSE,160,5.0,8.0,76,0.00,,---,0.00,VWS V14.01,2013-07-07 17:49:00,
2013-07-07 13:54:00,84.4,74.0,30.18,South,180,1.0,8.0,71,0.00,,---,0.00,VWS V14.01,2013-07-07 17:54:00,
2013-07-07 13:59:00,84.6,75.4,30.18,South,170,3.0,8.0,74,0.00,,---,0.00,VWS V14.01,2013-07-07 17:59:00,
2013-07-07 14:04:00,85.1,75.1,30.18,SE,133,3.0,7.0,72,0.00,,---,0.00,VWS V14.01,2013-07-07 18:04:00,
2013-07-07 14:09:00,84.8,74.4,30.18,SW,227,1.0,8.0,71,0.00,,---,0.00,VWS V14.01,2013-07-07 18:09:00,
2013-07-07 14:15:00,85.1,75.1,30.18,SSW,205,1.0,8.0,72,0.00,,---,0.00,VWS V14.01,2013-07-07 18:15:00,
2013-07-07 14:20:00,85.9,75.4,30.18,South,185,2.0,8.0,71,0.00,,---,0.00,VWS V14.01,2013-07-07 18:20:00,
2013-07-07 14:25:00,85.6,75.5,30.18,South,178,2.0,9.0,72,0.00,,---,0.00,VWS V14.01,2013-07-07 18:25:00,
2013-07-07 14:30:00,85.8,74.9,30.17,South,182,0.0,9.0,70,0.00,,---,0.00,VWS V14.01,2013-07-07 18:30:00,
2013-07-07 14:35:00,85.0,75.0,30.17,SSW,207,3.0,6.0,72,0.00,,---,0.00,VWS V14.01,2013-07-07 18:35:00,
2013-07-07 14:40:00,84.8,75.6,30.17,SSE,147,5.0,8.0,74,0.00,,---,0.00,VWS V14.01,2013-07-07 18:40:00,
2013-07-07 14:45:00,85.0,75.8,30.17,SW,222,2.0,9.0,74,0.00,,---,0.00,VWS V14.01,2013-07-07 18:45:00,
2013-07-07 14:50:00,84.8,75.6,30.16,SSW,195,3.0,5.0,74,0.00,,---,0.00,VWS V14.01,2013-07-07 18:50:00,
2013-07-07 14:55:00,86.5,76.8,30.16,South,169,1.0,6.0,73,0.00,,---,0.00,VWS V14.01,2013-07-07 18:55:00,
2013-07-07 15:00:00,86.6,75.2,30.16,South,176,2.0,3.0,69,0.00,,---,0.00,VWS V14.01,2013-07-07 19:00:00,
2013-07-07 15:05:00,86.4,76.3,30.16,SSW,200,5.0,9.0,72,0.00,,---,0.00,VWS V14.01,2013-07-07 19:05:00,
2013-07-07 15:10:00,85.8,74.9,30.16,SSE,166,2.0,9.0,70,0.00,,---,0.00,VWS V14.01,2013-07-07 19:10:00,
2013-07-07 15:16:00,85.4,75.8,30.16,SSW,195,5.0,8.0,73,0.00,,---,0.00,VWS V14.01,2013-07-07 19:16:00,
2013-07-07 15:21:00,85.3,74.0,30.16,South,186,4.0,8.0,69,0.00,,---,0.00,VWS V14.01,2013-07-07 19:21:00,
2013-07-07 15:26:00,85.1,75.1,30.15,SSW,213,3.0,8.0,72,0.00,,---,0.00,VWS V14.01,2013-07-07 19:26:00,
2013-07-07 15:31:00,84.8,74.4,30.15,SE,141,5.0,6.0,71,0.00,,---,0.00,VWS V14.01,2013-07-07 19:31:00,
2013-07-07 15:36:00,84.2,74.6,30.15,SSW,192,3.0,7.0,73,0.00,,---,0.00,VWS V14.01,2013-07-07 19:36:00,
2013-07-07 15:41:00,83.8,74.6,30.15,South,180,0.0,7.0,74,0.00,,---,0.00,VWS V14.01,2013-07-07 19:41:00,
2013-07-07 15:46:00,84.0,74.4,30.15,SSE,165,3.0,4.0,73,0.00,,---,0.00,VWS V14.01,2013-07-07 19:46:00,
2013-07-07 15:49:00,84.3,74.3,30.14,South,184,0.0,5.0,72,0.00,,---,0.00,VWS V14.01,2013-07-07 19:49:00,
2013-07-07 15:54:00,84.5,74.9,30.15,South,181,3.0,7.0,73,0.00,,---,0.00,VWS V14.01,2013-07-07 19:54:00,
2013-07-07 15:59:00,84.5,75.3,30.14,SSE,152,0.0,7.0,74,0.00,,---,0.00,VWS V14.01,2013-07-07 19:59:00,
2013-07-07 16:04:00,85.0,75.4,30.14,SSE,163,3.0,7.0,73,0.00,,---,0.00,VWS V14.01,2013-07-07 20:04:00,
2013-07-07 16:09:00,85.2,75.6,30.14,South,188,3.0,7.0,73,0.00,,---,0.00,VWS V14.01,2013-07-07 20:09:00,
2013-07-07 16:14:00,85.1,75.5,30.14,SW,234,5.0,7.0,73,0.00,,---,0.00,VWS V14.01,2013-07-07 20:14:00,
2013-07-07 16:19:00,85.0,75.0,30.13,ESE,122,2.0,6.0,72,0.00,,---,0.00,VWS V14.01,2013-07-07 20:19:00,
2013-07-07 16:24:00,85.4,75.8,30.13,WSW,250,2.0,7.0,73,0.00,,---,0.00,VWS V14.01,2013-07-07 20:24:00,
2013-07-07 16:29:00,84.7,73.8,30.13,SE,141,5.0,7.0,70,0.00,,---,0.00,VWS V14.01,2013-07-07 20:29:00,
2013-07-07 16:34:00,84.0,73.6,30.13,South,176,5.0,7.0,71,0.00,,---,0.00,VWS V14.01,2013-07-07 20:34:00,
2013-07-07 16:39:00,83.7,74.1,30.13,SSE,168,3.0,7.0,73,0.00,,---,0.00,VWS V14.01,2013-07-07 20:39:00,
2013-07-07 16:44:00,83.6,74.4,30.13,SSW,212,2.0,7.0,74,0.00,,---,0.00,VWS V14.01,2013-07-07 20:44:00,
2013-07-07 16:50:00,83.3,73.8,30.13,SSW,199,2.0,10.0,73,0.00,,---,0.00,VWS V14.01,2013-07-07 20:50:00,
2013-07-07 16:55:00,83.1,74.0,30.13,SW,223,3.0,10.0,74,0.00,,---,0.00,VWS V14.01,2013-07-07 20:55:00,
2013-07-07 17:00:00,83.2,74.8,30.13,SSW,212,0.0,10.0,76,0.00,,---,0.00,VWS V14.01,2013-07-07 21:00:00,
2013-07-07 17:05:00,83.2,75.2,30.13,WSW,247,5.0,6.0,77,0.00,,---,0.00,VWS V14.01,2013-07-07 21:05:00,
2013-07-07 17:10:00,82.5,76.4,30.14,West,263,1.0,7.0,82,0.00,,---,0.00,VWS V14.01,2013-07-07 21:10:00,
2013-07-07 17:15:00,80.2,75.6,30.14,SSW,209,0.0,8.0,86,0.02,,---,0.02,VWS V14.01,2013-07-07 21:15:00,
2013-07-07 17:20:00,79.0,75.2,30.13,NW,310,0.0,5.0,88,0.03,,---,0.03,VWS V14.01,2013-07-07 21:20:00,
2013-07-07 17:25:00,79.3,75.8,30.13,WNW,288,1.0,5.0,89,0.03,,---,0.03,VWS V14.01,2013-07-07 21:25:00,
2013-07-07 17:30:00,79.4,75.9,30.13,West,266,0.0,1.0,89,0.03,,---,0.03,VWS V14.01,2013-07-07 21:30:00,
2013-07-07 17:35:00,79.9,76.4,30.12,SW,235,0.0,3.0,89,0.03,,---,0.03,VWS V14.01,2013-07-07 21:35:00,
2013-07-07 17:40:00,80.4,76.5,30.12,SSW,213,3.0,4.0,88,0.03,,---,0.03,VWS V14.01,2013-07-07 21:40:00,
2013-07-07 17:45:00,80.6,75.3,30.12,SW,226,1.0,4.0,84,0.03,,---,0.03,VWS V14.01,2013-07-07 21:45:00,
2013-07-07 17:50:00,80.9,75.6,30.12,SSW,197,0.0,5.0,84,0.03,,---,0.03,VWS V14.01,2013-07-07 21:50:00,
2013-07-07 17:55:00,81.6,76.7,30.12,WSW,257,1.0,5.0,85,0.03,,---,0.03,VWS V14.01,2013-07-07 21:55:00,
2013-07-07 18:01:00,81.5,75.5,30.11,West,269,1.0,1.0,82,0.03,,---,0.03,VWS V14.01,2013-07-07 22:01:00,
2013-07-07 18:06:00,81.8,75.4,30.11,WSW,255,1.0,2.0,81,0.03,,---,0.03,VWS V14.01,2013-07-07 22:06:00,
2013-07-07 18:11:00,82.1,75.3,30.11,SSW,198,0.0,3.0,80,0.03,,---,0.03,VWS V14.01,2013-07-07 22:11:00,
2013-07-07 18:16:00,82.2,74.7,30.11,WSW,257,0.0,1.0,78,0.01,,---,0.03,VWS V14.01,2013-07-07 22:16:00,
2013-07-07 18:21:00,82.4,74.9,30.11,WSW,239,1.0,3.0,78,0.01,,---,0.03,VWS V14.01,2013-07-07 22:21:00,
2013-07-07 18:26:00,82.8,75.6,30.11,West,262,2.0,5.0,79,0.01,,---,0.03,VWS V14.01,2013-07-07 22:26:00,
2013-07-07 18:31:00,83.0,75.8,30.11,SSW,194,2.0,2.0,79,0.00,,---,0.03,VWS V14.01,2013-07-07 22:31:00,
2013-07-07 18:36:00,83.1,76.3,30.11,WSW,238,1.0,2.0,80,0.00,,---,0.03,VWS V14.01,2013-07-07 22:36:00,
2013-07-07 18:41:00,83.1,75.9,30.11,WNW,289,1.0,2.0,79,0.00,,---,0.03,VWS V14.01,2013-07-07 22:41:00,
2013-07-07 18:46:00,83.0,75.8,30.11,WNW,284,0.0,1.0,79,0.00,,---,0.03,VWS V14.01,2013-07-07 22:46:00,
2013-07-07 18:51:00,82.8,76.0,30.11,SSW,207,0.0,2.0,80,0.00,,---,0.03,VWS V14.01,2013-07-07 22:51:00,
2013-07-07 18:56:00,82.4,76.0,30.11,SSW,207,0.0,2.0,81,0.00,,---,0.03,VWS V14.01,2013-07-07 22:56:00,
2013-07-07 19:01:00,82.3,76.6,30.12,SSW,205,0.0,0.0,83,0.00,,---,0.03,VWS V14.01,2013-07-07 23:01:00,
2013-07-07 19:07:00,82.0,76.3,30.12,SSW,212,0.0,3.0,83,0.00,,---,0.03,VWS V14.01,2013-07-07 23:07:00,
2013-07-07 19:12:00,81.6,76.7,30.12,SSE,150,8.0,8.0,85,0.00,,---,0.03,VWS V14.01,2013-07-07 23:12:00,
2013-07-07 19:17:00,79.4,73.1,30.13,South,182,4.0,10.0,81,0.00,,---,0.03,VWS V14.01,2013-07-07 23:17:00,
2013-07-07 19:22:00,77.2,72.3,30.12,SSE,148,3.0,10.0,85,0.01,,---,0.04,VWS V14.01,2013-07-07 23:22:00,
2013-07-07 19:27:00,76.2,72.1,30.13,SSE,155,2.0,10.0,87,0.02,,---,0.05,VWS V14.01,2013-07-07 23:27:00,
2013-07-07 19:32:00,75.5,72.0,30.13,South,172,1.0,2.0,89,0.02,,---,0.05,VWS V14.01,2013-07-07 23:32:00,
2013-07-07 19:37:00,75.2,72.1,30.13,SSE,167,6.0,7.0,90,0.03,,---,0.06,VWS V14.01,2013-07-07 23:37:00,
2013-07-07 19:42:00,74.8,72.0,30.15,SW,216,3.0,7.0,91,0.29,,---,0.32,VWS V14.01,2013-07-07 23:42:00,
2013-07-07 19:47:00,74.5,72.3,30.14,NNW,330,2.0,5.0,93,0.44,,---,0.47,VWS V14.01,2013-07-07 23:47:00,
2013-07-07 19:52:00,74.2,72.4,30.14,NE,37,1.0,5.0,94,0.51,,---,0.54,VWS V14.01,2013-07-07 23:52:00,
2013-07-07 19:57:00,74.1,72.3,30.14,North,350,2.0,5.0,94,0.51,,---,0.54,VWS V14.01,2013-07-07 23:57:00,
2013-07-07 20:02:00,74.1,72.6,30.15,NNW,335,0.0,5.0,95,0.51,,---,0.54,VWS V14.01,2013-07-08 00:02:00,
2013-07-07 20:07:00,74.2,72.7,30.14,NNW,335,0.0,5.0,95,0.51,,---,0.54,VWS V14.01,2013-07-08 00:07:00,
2013-07-07 20:13:00,74.2,72.7,30.15,NNW,335,0.0,5.0,95,0.51,,---,0.54,VWS V14.01,2013-07-08 00:13:00,
2013-07-07 20:18:00,74.2,72.7,30.15,NNW,335,0.0,1.0,95,0.51,,---,0.54,VWS V14.01,2013-07-08 00:18:00,
2013-07-07 20:23:00,74.1,72.6,30.15,NNW,344,0.0,2.0,95,0.51,,---,0.54,VWS V14.01,2013-07-08 00:23:00,
2013-07-07 20:28:00,74.0,72.5,30.15,NNW,344,0.0,2.0,95,0.51,,---,0.54,VWS V14.01,2013-07-08 00:28:00,
2013-07-07 20:33:00,74.0,72.5,30.15,NNW,344,0.0,1.0,95,0.49,,---,0.54,VWS V14.01,2013-07-08 00:33:00,
2013-07-07 20:38:00,73.8,72.6,30.15,North,9,0.0,2.0,96,0.49,,---,0.54,VWS V14.01,2013-07-08 00:38:00,
2013-07-07 20:43:00,73.8,72.6,30.15,North,9,0.0,2.0,96,0.49,,---,0.54,VWS V14.01,2013-07-08 00:43:00,
2013-07-07 20:48:00,73.7,72.5,30.15,North,9,0.0,0.0,96,0.13,,---,0.54,VWS V14.01,2013-07-08 00:48:00,
2013-07-07 20:53:00,73.7,72.5,30.15,North,9,0.0,0.0,96,0.13,,---,0.54,VWS V14.01,2013-07-08 00:53:00,
2013-07-07 20:58:00,73.6,72.4,30.15,North,9,0.0,0.0,96,0.13,,---,0.54,VWS V14.01,2013-07-08 00:58:00,
2013-07-07 21:03:00,73.6,72.4,30.15,North,9,0.0,0.0,96,0.00,,---,0.54,VWS V14.01,2013-07-08 01:03:00,
2013-07-07 21:08:00,73.5,72.3,30.15,North,9,0.0,0.0,96,0.00,,---,0.54,VWS V14.01,2013-07-08 01:08:00,
2013-07-07 21:13:00,73.6,72.4,30.15,North,9,0.0,0.0,96,0.00,,---,0.54,VWS V14.01,2013-07-08 01:13:00,
2013-07-07 21:18:00,73.6,72.4,30.15,North,9,0.0,0.0,96,0.00,,---,0.54,VWS V14.01,2013-07-08 01:18:00,
2013-07-07 21:23:00,73.4,72.2,30.15,North,9,0.0,0.0,96,0.00,,---,0.54,VWS V14.01,2013-07-08 01:23:00,
2013-07-07 21:29:00,73.4,72.2,30.16,NNE,12,0.0,1.0,96,0.00,,---,0.54,VWS V14.01,2013-07-08 01:29:00,
2013-07-07 21:34:00,73.3,72.1,30.16,SE,135,0.0,1.0,96,0.00,,---,0.54,VWS V14.01,2013-07-08 01:34:00,
2013-07-07 21:39:00,73.3,72.1,30.16,SE,135,0.0,1.0,96,0.00,,---,0.54,VWS V14.01,2013-07-08 01:39:00,
2013-07-07 21:44:00,73.3,72.1,30.17,SE,135,0.0,2.0,96,0.00,,---,0.54,VWS V14.01,2013-07-08 01:44:00,
2013-07-07 21:49:00,73.4,72.5,30.17,SE,135,0.0,1.0,97,0.00,,---,0.54,VWS V14.01,2013-07-08 01:49:00,
2013-07-07 21:54:00,73.4,72.5,30.17,SE,135,1.0,1.0,97,0.00,,---,0.54,VWS V14.01,2013-07-08 01:54:00,
2013-07-07 21:59:00,73.4,72.5,30.18,SE,136,0.0,2.0,97,0.00,,---,0.54,VWS V14.01,2013-07-08 01:59:00,
2013-07-07 22:04:00,73.5,72.6,30.18,SE,136,2.0,2.0,97,0.00,,---,0.54,VWS V14.01,2013-07-08 02:04:00,
2013-07-07 22:09:00,73.5,72.6,30.18,SE,136,0.0,2.0,97,0.00,,---,0.54,VWS V14.01,2013-07-08 02:09:00,
2013-07-07 22:14:00,73.5,72.6,30.18,SE,136,0.0,2.0,97,0.00,,---,0.54,VWS V14.01,2013-07-08 02:14:00,
2013-07-07 22:19:00,73.6,72.7,30.18,SE,136,0.0,0.0,97,0.00,,---,0.54,VWS V14.01,2013-07-08 02:19:00,
2013-07-07 22:24:00,73.5,72.6,30.18,SE,136,0.0,0.0,97,0.00,,---,0.54,VWS V14.01,2013-07-08 02:24:00,
2013-07-07 22:29:00,73.5,72.6,30.18,SE,136,0.0,0.0,97,0.00,,---,0.54,VWS V14.01,2013-07-08 02:29:00,
2013-07-07 22:34:00,73.5,72.6,30.18,SE,136,0.0,0.0,97,0.00,,---,0.54,VWS V14.01,2013-07-08 02:34:00,
2013-07-07 22:40:00,73.5,72.6,30.18,SE,146,0.0,2.0,97,0.00,,---,0.54,VWS V14.01,2013-07-08 02:40:00,
2013-07-07 22:45:00,73.5,72.6,30.18,SE,146,0.0,2.0,97,0.00,,---,0.54,VWS V14.01,2013-07-08 02:45:00,
2013-07-07 22:50:00,73.5,72.6,30.18,SE,146,0.0,2.0,97,0.00,,---,0.54,VWS V14.01,2013-07-08 02:50:00,
2013-07-07 22:55:00,73.5,72.6,30.18,SSE,147,1.0,2.0,97,0.00,,---,0.54,VWS V14.01,2013-07-08 02:55:00,
2013-07-07 23:00:00,73.5,72.6,30.18,SSE,147,0.0,2.0,97,0.00,,---,0.54,VWS V14.01,2013-07-08 03:00:00,
2013-07-07 23:05:00,73.5,72.6,30.18,SSE,147,0.0,0.0,97,0.00,,---,0.54,VWS V14.01,2013-07-08 03:05:00,
2013-07-07 23:10:00,73.6,72.7,30.18,SSE,147,0.0,1.0,97,0.00,,---,0.54,VWS V14.01,2013-07-08 03:10:00,
2013-07-07 23:15:00,73.7,72.8,30.18,SSE,147,0.0,1.0,97,0.00,,---,0.54,VWS V14.01,2013-07-08 03:15:00,
2013-07-07 23:20:00,73.8,72.9,30.18,SSE,147,0.0,0.0,97,0.00,,---,0.54,VWS V14.01,2013-07-08 03:20:00,
2013-07-07 23:25:00,73.8,72.9,30.18,SSE,147,0.0,0.0,97,0.00,,---,0.54,VWS V14.01,2013-07-08 03:25:00,
2013-07-07 23:30:00,73.9,73.0,30.18,SSE,147,0.0,0.0,97,0.00,,---,0.54,VWS V14.01,2013-07-08 03:30:00,
2013-07-07 23:35:00,74.0,73.1,30.18,South,188,0.0,5.0,97,0.00,,---,0.54,VWS V14.01,2013-07-08 03:35:00,
2013-07-07 23:40:00,73.9,73.0,30.18,South,182,0.0,5.0,97,0.00,,---,0.54,VWS V14.01,2013-07-08 03:40:00,
2013-07-07 23:45:00,73.9,72.7,30.17,SSW,205,0.0,0.0,96,0.00,,---,0.54,VWS V14.01,2013-07-08 03:45:00,
2013-07-07 23:50:00,74.0,72.8,30.18,South,190,0.0,2.0,96,0.00,,---,0.54,VWS V14.01,2013-07-08 03:50:00,
2013-07-07 23:56:00,74.0,72.8,30.18,SSW,202,0.0,2.0,96,0.00,,---,0.54,VWS V14.01,2013-07-08 03:56:00,